Time;durP1;ratioP1;P1;durP2;ratioP2;P2;SDS_P1;SDS_P2;PMS_P1;PMS_P2;Temp;Humidity;BMP_temperature;BMP_pressure;BME280_temperature;BME280_humidity;BME280_pressure;Samples;Min_cycle;Max_cycle;Signal;HPM_P1;HPM_P2
2023/11/24 00:02:01;;;;;;;10.80;7.10;;;;;;;4.77;100.00;98163.77;107171;1267;72727;-68
2023/11/24 00:04:29;;;;;;;11.50;6.90;;;;;;;4.78;100.00;98160.91;107247;1267;60947;-68
2023/11/24 00:06:57;;;;;;;11.50;7.10;;;;;;;4.79;100.00;98155.48;107257;1272;60056;-67
2023/11/24 00:09:29;;;;;;;10.00;7.10;;;;;;;4.78;100.00;98155.78;107246;1267;71785;-68
2023/11/24 00:12:00;;;;;;;12.00;7.30;;;;;;;4.79;100.00;98150.69;107225;1267;72192;-70
2023/11/24 00:14:28;;;;;;;11.90;7.40;;;;;;;4.80;100.00;98154.22;107207;1270;71491;-70
2023/11/24 00:16:57;;;;;;;10.90;7.40;;;;;;;4.78;100.00;98147.26;107186;1273;59616;-68
2023/11/24 00:19:25;;;;;;;11.00;7.20;;;;;;;4.77;100.00;98152.19;107209;1267;59422;-68
2023/11/24 00:21:53;;;;;;;11.80;7.70;;;;;;;4.76;100.00;98147.54;107246;1267;73302;-67
2023/11/24 00:24:21;;;;;;;11.40;7.90;;;;;;;4.72;100.00;98146.94;107253;1267;71829;-69
2023/11/24 00:26:51;;;;;;;11.00;7.60;;;;;;;4.71;100.00;98143.40;107191;1269;72740;-70
2023/11/24 00:29:21;;;;;;;11.60;7.70;;;;;;;4.67;100.00;98140.11;107485;1260;59663;-69
2023/11/24 00:31:49;;;;;;;13.20;8.30;;;;;;;4.65;100.00;98138.48;107429;1261;60020;-69
2023/11/24 00:34:17;;;;;;;12.60;8.50;;;;;;;4.65;100.00;98130.86;107587;1265;71867;-69
2023/11/24 00:36:46;;;;;;;13.10;8.40;;;;;;;4.64;100.00;98134.84;107509;1260;71490;-67
2023/11/24 00:39:15;;;;;;;13.40;8.70;;;;;;;4.63;100.00;98126.80;107525;1266;72764;-68
2023/11/24 00:41:43;;;;;;;11.20;8.20;;;;;;;4.62;100.00;98125.44;107527;1261;59726;-70
2023/11/24 00:44:10;;;;;;;13.50;8.70;;;;;;;4.60;100.00;98130.22;107619;1260;60038;-69
2023/11/24 00:46:38;;;;;;;12.60;8.30;;;;;;;4.57;100.00;98121.77;107530;1260;73066;-70
2023/11/24 00:49:06;;;;;;;14.70;8.60;;;;;;;4.55;100.00;98110.80;107559;1260;72947;-69
2023/11/24 00:51:34;;;;;;;14.50;8.60;;;;;;;4.52;100.00;98109.45;107564;1262;72787;-68
2023/11/24 00:54:02;;;;;;;12.30;7.90;;;;;;;4.49;100.00;98097.95;107576;1264;60989;-68
2023/11/24 00:56:30;;;;;;;13.20;8.60;;;;;;;4.46;100.00;98092.52;107493;1260;59970;-68
2023/11/24 00:58:58;;;;;;;13.00;8.00;;;;;;;4.45;100.00;98093.13;107611;1260;71778;-66
2023/11/24 01:01:26;;;;;;;13.20;9.00;;;;;;;4.42;100.00;98092.52;107700;1260;72698;-69
2023/11/24 01:03:53;;;;;;;13.80;8.50;;;;;;;4.39;100.00;98081.70;107667;1260;72641;-71
2023/11/24 01:06:21;;;;;;;13.20;8.10;;;;;;;4.38;100.00;98075.58;107633;1265;59647;-70
2023/11/24 01:08:49;;;;;;;14.40;8.70;;;;;;;4.37;100.00;98070.83;107690;1260;59410;-68
2023/11/24 01:11:17;;;;;;;12.40;8.90;;;;;;;4.36;100.00;98068.25;107570;1260;73459;-68
2023/11/24 01:13:45;;;;;;;12.90;8.40;;;;;;;4.36;100.00;98071.05;107626;1260;71914;-67
2023/11/24 01:16:14;;;;;;;13.90;9.20;;;;;;;4.34;100.00;98066.41;107608;1260;72725;-68
2023/11/24 01:18:42;;;;;;;13.40;8.40;;;;;;;4.33;100.00;98051.25;107556;1260;59730;-67
2023/11/24 01:21:10;;;;;;;12.40;8.20;;;;;;;4.32;100.00;98050.67;107655;1260;59003;-68
2023/11/24 01:23:38;;;;;;;13.00;8.00;;;;;;;4.31;100.00;98048.73;107657;1261;73239;-68
2023/11/24 01:26:05;;;;;;;12.50;8.20;;;;;;;4.30;100.00;98042.34;107594;1260;71336;-68
2023/11/24 01:28:34;;;;;;;13.00;8.30;;;;;;;4.25;100.00;98048.10;107554;1260;72699;-68
2023/11/24 01:31:02;;;;;;;13.20;7.50;;;;;;;4.26;100.00;98037.20;107564;1263;60394;-68
2023/11/24 01:33:30;;;;;;;13.10;7.70;;;;;;;4.27;100.00;98032.48;107552;1260;60169;-69
2023/11/24 01:35:59;;;;;;;13.20;8.10;;;;;;;4.28;100.00;98016.41;107581;1260;73017;-68
2023/11/24 01:38:27;;;;;;;12.30;7.90;;;;;;;4.28;100.00;98011.66;107559;1260;72726;-66
2023/11/24 01:40:55;;;;;;;12.30;7.50;;;;;;;4.29;100.00;98012.97;107537;1260;71687;-66
2023/11/24 01:43:23;;;;;;;11.90;7.20;;;;;;;4.29;100.00;98011.54;107562;1260;60362;-66
2023/11/24 01:45:51;;;;;;;12.20;7.50;;;;;;;4.31;100.00;98003.06;107557;1259;60028;-67
2023/11/24 01:48:19;;;;;;;10.50;6.80;;;;;;;4.32;100.00;97999.99;107452;1260;73153;-69
2023/11/24 01:50:47;;;;;;;12.30;7.80;;;;;;;4.32;100.00;97993.34;107505;1260;72720;-68
2023/11/24 01:53:15;;;;;;;12.20;7.30;;;;;;;4.30;100.00;97995.63;107505;1260;72736;-68
2023/11/24 01:55:43;;;;;;;11.90;7.40;;;;;;;4.32;100.00;97992.50;107562;1260;61500;-67
2023/11/24 01:58:10;;;;;;;11.10;6.60;;;;;;;4.32;100.00;97991.02;107601;1260;59967;-67
2023/11/24 02:00:38;;;;;;;13.40;8.00;;;;;;;4.33;100.00;97977.36;107576;1260;73076;-68
2023/11/24 02:03:06;;;;;;;11.60;6.90;;;;;;;4.33;100.00;97972.86;107595;1261;72578;-67
2023/11/24 02:05:36;;;;;;;11.80;7.70;;;;;;;4.29;100.00;97973.91;107516;1259;72726;-68
2023/11/24 02:08:05;;;;;;;11.90;7.20;;;;;;;4.28;100.00;97967.95;108051;1259;59763;-69
2023/11/24 02:10:33;;;;;;;12.70;7.60;;;;;;;4.26;100.00;97966.02;107591;1260;59147;-68
2023/11/24 02:13:01;;;;;;;11.60;6.80;;;;;;;4.25;100.00;97956.42;107593;1259;72832;-67
2023/11/24 02:15:30;;;;;;;13.60;7.80;;;;;;;4.25;100.00;97956.94;107560;1260;72520;-68
2023/11/24 02:17:58;;;;;;;12.00;7.60;;;;;;;4.27;100.00;97953.59;107538;1260;71608;-66
2023/11/24 02:20:26;;;;;;;11.70;6.70;;;;;;;4.26;100.00;97941.39;107573;1260;59637;-67
2023/11/24 02:22:54;;;;;;;12.30;7.70;;;;;;;4.27;100.00;97941.38;107594;1260;60027;-67
2023/11/24 02:25:22;;;;;;;12.40;7.60;;;;;;;4.28;100.00;97936.09;107548;1259;73111;-68
2023/11/24 02:27:49;;;;;;;10.50;6.70;;;;;;;4.31;100.00;97930.88;107623;1260;71298;-67
2023/11/24 02:30:17;;;;;;;12.30;7.70;;;;;;;4.34;100.00;97918.63;107531;1260;71421;-67
2023/11/24 02:32:46;;;;;;;12.10;7.60;;;;;;;4.36;100.00;97915.66;107524;1259;60896;-67
2023/11/24 02:35:14;;;;;;;12.00;7.20;;;;;;;4.39;100.00;97914.26;107495;1261;59407;-66
2023/11/24 02:37:42;;;;;;;11.80;6.60;;;;;;;4.41;100.00;97917.02;107616;1260;73038;-66
2023/11/24 02:40:11;;;;;;;9.40;5.90;;;;;;;4.43;100.00;97905.70;107657;1261;71394;-67
2023/11/24 02:42:39;;;;;;;9.40;6.50;;;;;;;4.48;100.00;97901.69;107650;1259;72335;-66
2023/11/24 02:45:07;;;;;;;10.10;6.40;;;;;;;4.52;100.00;97899.00;107663;1260;60977;-66
2023/11/24 02:47:35;;;;;;;9.40;6.50;;;;;;;4.54;100.00;97898.85;107532;1260;60176;-66
2023/11/24 02:50:03;;;;;;;9.90;6.30;;;;;;;4.58;100.00;97893.84;107471;1260;72376;-65
2023/11/24 02:52:31;;;;;;;11.10;6.70;;;;;;;4.61;100.00;97891.02;107555;1260;72709;-65
2023/11/24 02:54:59;;;;;;;9.40;6.20;;;;;;;4.64;100.00;97893.73;107634;1260;71152;-65
2023/11/24 02:57:27;;;;;;;9.70;6.50;;;;;;;4.67;100.00;97883.69;107580;1260;60865;-67
2023/11/24 02:59:55;;;;;;;10.00;6.50;;;;;;;4.73;100.00;97873.25;107589;1260;59413;-66
2023/11/24 03:02:23;;;;;;;10.60;5.80;;;;;;;4.76;100.00;97874.85;107565;1259;71086;-66
2023/11/24 03:04:51;;;;;;;10.70;6.80;;;;;;;4.77;100.00;97863.90;107653;1263;72657;-66
2023/11/24 03:07:19;;;;;;;10.90;6.00;;;;;;;4.79;100.00;97856.62;107547;1260;72706;-65
2023/11/24 03:09:46;;;;;;;10.60;6.10;;;;;;;4.82;100.00;97853.56;107644;1262;60784;-67
2023/11/24 03:12:16;;;;;;;10.50;6.60;;;;;;;4.86;100.00;97852.61;107623;1259;59714;-67
2023/11/24 03:14:44;;;;;;;12.20;6.50;;;;;;;4.88;100.00;97848.29;107587;1259;73282;-65
2023/11/24 03:17:12;;;;;;;10.60;7.00;;;;;;;4.88;100.00;97841.36;107650;1263;71883;-65
2023/11/24 03:19:40;;;;;;;9.60;6.20;;;;;;;4.91;100.00;97834.92;107681;1260;71147;-67
2023/11/24 03:22:08;;;;;;;10.90;6.90;;;;;;;4.93;100.00;97833.95;107635;1260;61043;-66
2023/11/24 03:24:36;;;;;;;11.80;7.20;;;;;;;4.97;100.00;97825.33;107606;1260;59967;-68
2023/11/24 03:27:03;;;;;;;11.00;7.00;;;;;;;4.98;100.00;97827.69;107651;1260;71842;-66
2023/11/24 03:29:33;;;;;;;11.50;7.50;;;;;;;5.02;100.00;97823.17;107596;1260;72951;-68
2023/11/24 03:32:02;;;;;;;10.10;6.80;;;;;;;5.03;100.00;97823.52;107605;1260;72724;-66
2023/11/24 03:34:30;;;;;;;11.40;6.50;;;;;;;5.06;100.00;97810.48;107616;1260;60932;-64
2023/11/24 03:36:57;;;;;;;10.30;6.50;;;;;;;5.07;99.94;97810.52;107608;1259;59455;-66
2023/11/24 03:39:25;;;;;;;11.20;7.20;;;;;;;5.10;99.42;97801.10;107645;1260;73106;-66
2023/11/24 03:41:53;;;;;;;10.00;6.70;;;;;;;5.15;98.90;97795.89;107607;1259;72744;-66
2023/11/24 03:44:21;;;;;;;11.00;7.10;;;;;;;5.16;98.25;97793.37;107675;1260;71287;-65
2023/11/24 03:46:48;;;;;;;10.50;7.10;;;;;;;5.18;97.47;97785.84;107584;1260;60928;-66
2023/11/24 03:49:16;;;;;;;10.50;6.50;;;;;;;5.21;97.29;97770.09;107582;1259;60203;-65
2023/11/24 03:51:44;;;;;;;10.20;6.80;;;;;;;5.21;96.43;97767.00;107515;1259;73976;-65
2023/11/24 03:54:12;;;;;;;11.10;6.90;;;;;;;5.25;95.60;97768.48;107570;1260;72538;-66
2023/11/24 03:56:39;;;;;;;10.20;7.10;;;;;;;5.28;94.83;97754.83;107516;1265;72651;-66
2023/11/24 03:59:07;;;;;;;11.30;6.60;;;;;;;5.32;94.43;97739.88;107556;1260;60791;-65
2023/11/24 04:01:35;;;;;;;9.40;6.50;;;;;;;5.32;93.77;97725.89;107843;1260;60438;-67
2023/11/24 04:04:03;;;;;;;10.50;6.90;;;;;;;5.35;93.42;97714.91;107577;1260;73890;-64
2023/11/24 04:06:31;;;;;;;10.40;6.20;;;;;;;5.35;93.00;97705.17;107825;1256;72745;-65
2023/11/24 04:08:59;;;;;;;9.70;6.50;;;;;;;5.34;92.67;97684.48;107861;1256;72536;-65
2023/11/24 04:11:27;;;;;;;9.50;5.90;;;;;;;5.34;92.64;97690.09;107849;1257;61350;-65
2023/11/24 04:13:55;;;;;;;10.20;6.40;;;;;;;5.35;92.32;97699.71;107852;1256;59688;-67
2023/11/24 04:16:23;;;;;;;10.20;6.00;;;;;;;5.34;91.94;97683.42;107612;1263;74327;-65
2023/11/24 04:18:51;;;;;;;9.00;6.00;;;;;;;5.33;91.51;97682.91;107800;1256;72681;-65
2023/11/24 04:21:20;;;;;;;9.80;6.50;;;;;;;5.30;91.28;97673.70;107806;1258;72755;-66
2023/11/24 04:23:49;;;;;;;9.30;6.00;;;;;;;5.33;91.02;97652.09;107863;1256;60399;-64
2023/11/24 04:26:20;;;;;;;9.70;5.80;;;;;;;5.37;90.42;97669.60;107863;1256;60258;-67
2023/11/24 04:29:05;;;;;;;9.70;5.90;;;;;;;5.39;90.07;97665.92;107746;1256;73828;-67
2023/11/24 04:31:49;;;;;;;10.20;5.70;;;;;;;5.39;89.54;97664.58;104873;1292;600210;-65
2023/11/24 04:34:17;;;;;;;8.20;5.60;;;;;;;5.36;89.49;97664.91;107195;1273;60859;-63
2023/11/24 04:36:45;;;;;;;9.20;5.80;;;;;;;5.37;89.50;97688.23;107104;1267;59965;-64
2023/11/24 04:39:15;;;;;;;10.10;5.80;;;;;;;5.40;89.35;97707.13;107197;1267;71944;-66
2023/11/24 04:41:43;;;;;;;10.10;6.00;;;;;;;5.41;89.02;97721.41;107180;1272;73513;-64
2023/11/24 04:44:14;;;;;;;10.90;6.50;;;;;;;5.44;88.78;97725.73;107242;1267;72706;-64
2023/11/24 04:46:42;;;;;;;10.30;5.90;;;;;;;5.52;88.55;97730.54;107223;1263;60114;-65
2023/11/24 04:49:09;;;;;;;10.20;5.40;;;;;;;5.57;88.26;97728.94;107359;1263;59471;-66
2023/11/24 04:51:37;;;;;;;8.90;6.10;;;;;;;5.60;87.96;97725.35;107714;1257;71051;-65
2023/11/24 04:54:05;;;;;;;9.00;5.80;;;;;;;5.63;87.72;97728.63;107713;1257;71466;-66
2023/11/24 04:56:33;;;;;;;8.60;5.50;;;;;;;5.66;87.50;97738.91;107615;1257;72503;-66
2023/11/24 04:59:01;;;;;;;9.10;5.50;;;;;;;5.70;87.16;97738.50;107780;1257;60889;-66
2023/11/24 05:01:29;;;;;;;11.70;6.30;;;;;;;5.75;86.72;97715.48;107726;1257;59514;-64
2023/11/24 05:03:59;;;;;;;9.80;6.20;;;;;;;5.79;86.13;97727.47;107711;1257;72349;-63
2023/11/24 05:06:27;;;;;;;8.70;5.20;;;;;;;5.83;85.50;97718.82;107758;1257;71857;-62
2023/11/24 05:08:54;;;;;;;6.90;4.60;;;;;;;5.84;84.93;97715.99;107664;1257;73041;-64
2023/11/24 05:11:22;;;;;;;10.30;5.90;;;;;;;5.88;84.54;97716.50;107657;1261;60884;-64
2023/11/24 05:13:50;;;;;;;8.90;6.00;;;;;;;5.93;84.27;97698.84;107690;1257;59592;-64
2023/11/24 05:16:18;;;;;;;9.10;5.60;;;;;;;5.96;84.13;97702.12;107746;1257;73124;-64
2023/11/24 05:18:48;;;;;;;8.80;5.90;;;;;;;5.96;83.60;97700.79;107701;1258;72490;-63
2023/11/24 05:21:16;;;;;;;8.80;5.80;;;;;;;5.98;83.39;97739.64;107738;1257;71789;-65
2023/11/24 05:23:44;;;;;;;8.80;5.80;;;;;;;5.75;84.13;97735.17;107726;1257;59865;-65
2023/11/24 05:26:13;;;;;;;8.00;5.50;;;;;;;6.00;84.00;97735.80;107680;1257;60074;-64
2023/11/24 05:28:40;;;;;;;7.90;4.90;;;;;;;6.07;83.03;97742.91;107810;1257;73082;-65
2023/11/24 05:31:08;;;;;;;8.60;5.70;;;;;;;6.09;82.63;97746.80;107760;1258;72530;-65
2023/11/24 05:33:37;;;;;;;9.30;6.00;;;;;;;6.07;82.07;97752.70;107685;1257;71423;-65
2023/11/24 05:36:09;;;;;;;8.70;6.10;;;;;;;6.11;81.73;97756.70;107688;1257;59730;-65
2023/11/24 05:38:37;;;;;;;8.30;5.70;;;;;;;6.12;81.07;97738.89;107763;1257;59534;-65
2023/11/24 05:41:05;;;;;;;10.90;6.10;;;;;;;5.83;81.86;97744.98;107787;1256;73094;-64
2023/11/24 05:43:34;;;;;;;9.90;5.40;;;;;;;5.57;84.51;97752.61;107809;1257;71376;-63
2023/11/24 05:46:02;;;;;;;9.40;6.10;;;;;;;5.62;85.53;97762.86;107690;1257;72224;-65
2023/11/24 05:48:30;;;;;;;9.70;5.50;;;;;;;6.01;83.27;97744.56;107755;1257;59610;-65
2023/11/24 05:50:58;;;;;;;8.60;5.60;;;;;;;6.10;81.56;97749.27;107721;1257;59523;-66
2023/11/24 05:53:26;;;;;;;9.30;6.10;;;;;;;6.11;80.94;97749.66;108214;1253;71840;-63
2023/11/24 05:55:53;;;;;;;10.70;6.40;;;;;;;6.14;80.54;97743.57;108200;1254;72640;-65
2023/11/24 05:58:21;;;;;;;9.10;5.90;;;;;;;6.12;80.13;97755.90;108229;1254;71474;-66
2023/11/24 06:00:49;;;;;;;9.70;6.50;;;;;;;6.14;79.94;97735.09;108198;1254;59592;-66
2023/11/24 06:03:17;;;;;;;10.20;6.20;;;;;;;6.13;79.87;97753.55;108229;1253;60074;-65
2023/11/24 06:05:44;;;;;;;9.80;5.80;;;;;;;6.12;79.87;97747.27;108168;1253;73061;-65
2023/11/24 06:08:12;;;;;;;9.00;5.80;;;;;;;6.11;79.78;97760.95;108201;1254;72717;-64
2023/11/24 06:10:40;;;;;;;9.10;5.50;;;;;;;6.13;79.64;97767.70;108111;1254;72434;-64
2023/11/24 06:13:07;;;;;;;8.80;5.40;;;;;;;6.13;79.35;97754.97;108138;1258;59724;-64
2023/11/24 06:15:35;;;;;;;9.40;5.80;;;;;;;6.15;79.33;97744.08;108140;1253;60070;-65
2023/11/24 06:18:04;;;;;;;9.70;6.20;;;;;;;6.17;79.20;97742.02;108145;1253;73081;-65
2023/11/24 06:20:32;;;;;;;7.00;4.60;;;;;;;6.18;79.00;97751.00;108122;1254;71593;-65
2023/11/24 06:22:59;;;;;;;9.00;5.20;;;;;;;6.21;78.84;97744.04;108142;1253;72348;-65
2023/11/24 06:25:27;;;;;;;8.00;5.50;;;;;;;6.22;78.58;97753.10;108088;1254;60865;-65
2023/11/24 06:27:55;;;;;;;7.60;5.10;;;;;;;6.15;78.52;97750.54;108127;1252;59277;-65
2023/11/24 06:30:22;;;;;;;8.60;5.20;;;;;;;6.14;78.63;97755.86;108196;1253;71757;-64
2023/11/24 06:32:51;;;;;;;9.20;5.20;;;;;;;6.15;78.52;97736.43;108189;1253;70804;-63
2023/11/24 06:35:20;;;;;;;7.80;4.60;;;;;;;6.17;78.29;97734.53;108195;1255;73187;-64
2023/11/24 06:37:48;;;;;;;6.30;4.60;;;;;;;6.22;77.95;97728.66;108191;1258;59579;-66
2023/11/24 06:40:16;;;;;;;8.10;5.20;;;;;;;6.25;77.86;97722.55;108217;1253;62334;-64
2023/11/24 06:42:43;;;;;;;6.80;4.50;;;;;;;6.27;77.68;97726.86;108229;1253;72212;-65
2023/11/24 06:45:14;;;;;;;7.40;4.80;;;;;;;6.27;77.58;97735.91;108235;1253;72900;-65
2023/11/24 06:47:42;;;;;;;7.50;4.40;;;;;;;6.32;77.49;97748.34;108117;1252;71617;-65
2023/11/24 06:50:12;;;;;;;6.60;4.40;;;;;;;6.21;77.57;97748.67;108185;1256;60739;-65
2023/11/24 06:52:40;;;;;;;6.90;4.20;;;;;;;6.16;78.50;97752.17;108166;1254;59595;-66
2023/11/24 06:55:10;;;;;;;6.60;4.10;;;;;;;6.33;77.61;97755.98;108298;1253;73070;-66
2023/11/24 06:57:39;;;;;;;7.00;4.30;;;;;;;6.37;77.22;97762.60;108135;1254;72702;-65
2023/11/24 07:00:08;;;;;;;6.10;4.00;;;;;;;6.39;76.97;97755.04;108169;1253;71437;-66
2023/11/24 07:02:36;;;;;;;6.80;4.30;;;;;;;6.42;77.03;97747.96;108146;1254;59578;-65
2023/11/24 07:05:04;;;;;;;6.60;4.20;;;;;;;6.42;76.81;97746.48;108138;1254;59618;-64
2023/11/24 07:07:32;;;;;;;6.60;4.10;;;;;;;6.44;76.62;97756.54;108120;1252;72151;-66
2023/11/24 07:09:59;;;;;;;5.80;3.90;;;;;;;6.44;76.44;97746.42;108223;1254;72121;-65
2023/11/24 07:12:27;;;;;;;7.20;4.20;;;;;;;6.47;76.25;97754.80;108294;1254;71382;-65
2023/11/24 07:14:55;;;;;;;6.20;3.90;;;;;;;6.50;76.10;97757.29;108208;1252;59938;-64
2023/11/24 07:17:23;;;;;;;5.90;3.90;;;;;;;6.51;75.94;97752.52;108206;1253;59662;-63
2023/11/24 07:19:50;;;;;;;6.30;3.60;;;;;;;6.52;75.54;97765.56;108178;1253;71829;-64
2023/11/24 07:22:20;;;;;;;6.20;3.70;;;;;;;6.57;75.11;97772.67;108177;1254;72852;-65
2023/11/24 07:24:48;;;;;;;5.80;3.40;;;;;;;6.64;75.13;97762.98;108188;1254;75130;-64
2023/11/24 07:27:17;;;;;;;6.10;3.60;;;;;;;6.67;74.80;97761.95;108141;1254;59877;-64
2023/11/24 07:29:45;;;;;;;5.60;3.20;;;;;;;6.71;74.41;97761.17;108105;1254;59660;-64
2023/11/24 07:32:14;;;;;;;5.80;3.20;;;;;;;6.75;74.04;97755.45;108125;1254;73024;-64
2023/11/24 07:34:42;;;;;;;6.30;3.10;;;;;;;6.79;74.23;97763.56;108145;1254;71582;-65
2023/11/24 07:37:10;;;;;;;4.70;3.20;;;;;;;6.79;74.31;97763.10;108077;1253;71712;-64
2023/11/24 07:39:38;;;;;;;6.10;3.70;;;;;;;6.80;74.48;97763.20;108198;1254;60943;-65
2023/11/24 07:42:06;;;;;;;5.40;3.40;;;;;;;6.79;74.28;97755.79;108220;1252;59552;-65
2023/11/24 07:44:34;;;;;;;6.30;4.00;;;;;;;6.83;74.40;97757.81;108163;1252;72079;-65
2023/11/24 07:47:30;;;;;;;4.80;3.00;;;;;;;6.85;74.41;97762.52;108163;1252;74965;-64
2023/11/24 07:50:53;;;;;;;6.40;3.60;;;;;;;6.80;75.33;97759.15;108368;1254;72477;-64
2023/11/24 07:54:16;;;;;;;6.60;3.90;;;;;;;6.69;77.03;97749.16;108416;1253;59753;-64
2023/11/24 07:57:41;;;;;;;6.00;3.80;;;;;;;6.56;79.25;97761.49;108359;1252;61675;-65
2023/11/24 08:01:05;;;;;;;5.80;3.70;;;;;;;6.46;81.04;97780.32;108253;1253;71584;-64
2023/11/24 08:03:35;;;;;;;6.40;3.80;;;;;;;6.40;82.46;97781.94;108302;1253;72733;-64
2023/11/24 08:06:07;;;;;;;5.90;3.70;;;;;;;6.36;83.53;97783.63;108182;1253;71400;-65
2023/11/24 08:08:35;;;;;;;;;;;;;;;6.34;84.70;97778.55;108233;1254;59807;-66
2023/11/24 08:11:03;;;;;;;6.20;3.70;;;;;;;6.30;85.61;97794.65;108194;1254;59618;-64
2023/11/24 08:13:30;;;;;;;5.70;3.70;;;;;;;6.28;86.09;97801.05;108180;1257;73052;-65
2023/11/24 08:15:59;;;;;;;7.50;4.60;;;;;;;6.29;86.60;97797.70;108200;1253;72146;-65
2023/11/24 08:18:27;;;;;;;6.40;3.90;;;;;;;6.30;86.66;97804.66;108160;1254;71742;-65
2023/11/24 08:20:54;;;;;;;7.80;4.40;;;;;;;6.31;87.08;97803.86;108174;1254;59958;-65
2023/11/24 08:23:22;;;;;;;7.80;4.40;;;;;;;6.29;86.88;97803.01;108341;1252;60143;-63
2023/11/24 08:25:50;;;;;;;7.50;4.40;;;;;;;6.29;87.04;97809.17;108171;1252;73025;-65
2023/11/24 08:28:17;;;;;;;7.20;4.30;;;;;;;6.29;87.11;97798.11;108138;1253;71461;-65
2023/11/24 08:30:46;;;;;;;6.40;4.00;;;;;;;6.30;87.43;97798.46;108150;1254;72693;-65
2023/11/24 08:33:15;;;;;;;7.10;4.00;;;;;;;6.32;87.62;97798.55;108152;1254;60845;-64
2023/11/24 08:35:43;;;;;;;5.90;4.20;;;;;;;6.32;87.51;97792.68;108135;1254;59631;-64
2023/11/24 08:38:11;;;;;;;6.50;3.80;;;;;;;6.40;87.00;97783.11;108189;1258;71867;-65
2023/11/24 08:40:40;;;;;;;6.60;3.80;;;;;;;6.51;86.60;97785.36;108059;1253;70614;-65
2023/11/24 08:43:08;;;;;;;6.80;4.00;;;;;;;6.64;85.95;97781.91;108029;1253;72485;-66
2023/11/24 08:45:36;;;;;;;5.70;3.30;;;;;;;6.71;84.28;97770.08;108171;1258;61255;-65
2023/11/24 08:48:04;;;;;;;6.40;3.60;;;;;;;6.76;83.14;97771.88;108246;1252;60297;-66
2023/11/24 08:50:32;;;;;;;6.30;3.70;;;;;;;6.83;81.95;97769.56;108189;1252;72559;-64
2023/11/24 08:53:00;;;;;;;6.30;3.30;;;;;;;6.87;79.11;97771.95;108159;1254;72505;-64
2023/11/24 08:55:28;;;;;;;5.40;3.60;;;;;;;6.95;77.58;97750.96;108115;1254;71850;-64
2023/11/24 08:57:59;;;;;;;6.00;3.30;;;;;;;7.00;76.05;97755.98;108184;1252;60402;-65
2023/11/24 09:00:31;;;;;;;6.30;3.10;;;;;;;7.04;74.99;97745.27;108302;1254;60299;-65
2023/11/24 09:03:01;;;;;;;5.40;3.10;;;;;;;7.08;74.24;97749.91;108262;1254;72411;-64
2023/11/24 09:05:31;;;;;;;4.80;2.90;;;;;;;7.12;73.49;97754.15;108199;1254;72858;-64
2023/11/24 09:07:59;;;;;;;7.10;3.20;;;;;;;7.15;72.75;97754.30;108136;1254;72572;-66
2023/11/24 09:10:28;;;;;;;5.40;3.00;;;;;;;7.18;72.38;97751.38;108171;1254;61421;-65
2023/11/24 09:12:57;;;;;;;5.70;2.90;;;;;;;7.20;71.85;97736.11;108134;1254;60347;-64
2023/11/24 09:15:25;;;;;;;4.80;2.80;;;;;;;7.26;71.82;97732.27;108132;1253;74204;-64
2023/11/24 09:17:53;;;;;;;5.70;3.50;;;;;;;7.28;71.20;97741.81;108130;1254;72716;-64
2023/11/24 09:20:22;;;;;;;6.30;3.70;;;;;;;7.29;70.57;97731.55;108161;1254;71255;-66
2023/11/24 09:22:49;;;;;;;4.90;2.80;;;;;;;7.27;69.80;97728.83;108117;1256;60430;-65
2023/11/24 09:25:19;;;;;;;5.60;2.90;;;;;;;7.27;69.53;97720.17;108156;1252;60387;-65
2023/11/24 09:27:47;;;;;;;5.20;3.10;;;;;;;7.30;69.32;97711.41;108123;1254;74768;-65
2023/11/24 09:30:15;;;;;;;5.20;3.30;;;;;;;7.34;69.08;97725.79;108202;1253;71365;-65
2023/11/24 09:32:43;;;;;;;5.40;3.10;;;;;;;7.40;69.17;97710.08;108160;1254;72713;-65
2023/11/24 09:35:11;;;;;;;5.60;2.80;;;;;;;7.43;68.68;97711.66;108164;1254;61297;-65
2023/11/24 09:37:39;;;;;;;5.90;2.90;;;;;;;7.45;68.27;97713.83;108024;1254;60400;-64
2023/11/24 09:40:12;;;;;;;5.10;2.80;;;;;;;7.49;68.00;97716.50;108191;1254;74571;-66
2023/11/24 09:42:43;;;;;;;4.20;2.40;;;;;;;7.51;67.82;97725.41;108102;1254;71578;-65
2023/11/24 09:45:15;;;;;;;5.00;2.60;;;;;;;7.53;67.39;97727.11;108237;1254;75868;-66
2023/11/24 09:47:48;;;;;;;5.60;2.50;;;;;;;7.58;67.31;97721.09;108115;1252;61462;-66
2023/11/24 09:50:33;;;;;;;5.00;2.70;;;;;;;7.62;66.80;97722.76;108165;1254;60290;-64
2023/11/24 09:53:35;;;;;;;;;;;;;;;7.65;66.24;97723.59;108065;1253;73999;-65
2023/11/24 10:04:23;;;;;;;3.80;2.30;;;;;;;7.63;64.84;97718.23;107804;1256;62536;-65
2023/11/24 10:06:54;;;;;;;4.60;2.20;;;;;;;7.63;64.71;97722.48;107920;1256;59630;-65
2023/11/24 10:09:22;;;;;;;4.30;2.20;;;;;;;7.64;64.64;97727.84;107948;1254;73830;-65
2023/11/24 10:11:50;;;;;;;4.20;2.20;;;;;;;7.62;64.72;97749.77;107951;1254;72703;-66
2023/11/24 10:14:21;;;;;;;5.00;2.20;;;;;;;7.62;64.72;97743.15;108059;1256;70536;-66
2023/11/24 10:16:49;;;;;;;3.70;2.10;;;;;;;7.60;64.43;97757.52;108070;1254;61980;-65
2023/11/24 10:19:17;;;;;;;4.20;1.90;;;;;;;7.58;64.63;97761.19;107878;1254;61196;-68
2023/11/24 10:21:51;;;;;;;3.00;1.60;;;;;;;7.53;64.16;97752.91;107834;1256;73973;-64
2023/11/24 10:24:21;;;;;;;3.90;2.00;;;;;;;7.47;63.95;97755.85;107869;1256;72084;-64
2023/11/24 10:26:48;;;;;;;4.20;2.20;;;;;;;7.43;64.30;97746.48;107935;1256;74730;-65
2023/11/24 10:29:16;;;;;;;4.20;2.50;;;;;;;7.43;64.71;97747.77;107778;1257;61759;-64
2023/11/24 10:31:44;;;;;;;4.50;2.10;;;;;;;7.46;64.73;97739.60;107792;1256;60570;-67
2023/11/24 10:34:12;;;;;;;3.70;2.00;;;;;;;7.56;64.85;97740.90;107957;1256;73791;-66
2023/11/24 10:36:40;;;;;;;3.40;1.60;;;;;;;7.67;64.37;97727.95;107941;1259;72582;-65
2023/11/24 10:39:08;;;;;;;3.80;1.80;;;;;;;7.74;63.76;97711.84;107971;1254;71798;-68
2023/11/24 10:41:40;;;;;;;3.90;2.00;;;;;;;7.77;63.01;97719.73;108061;1255;60543;-65
2023/11/24 10:44:14;;;;;;;4.40;2.30;;;;;;;7.78;62.39;97713.86;108049;1256;60070;-65
2023/11/24 10:46:43;;;;;;;3.30;1.70;;;;;;;7.77;62.00;97712.14;107858;1256;73843;-64
2023/11/24 10:49:21;;;;;;;3.30;1.80;;;;;;;7.77;61.72;97721.40;108011;1256;71719;-64
2023/11/24 10:52:00;;;;;;;3.60;2.00;;;;;;;7.78;61.69;97724.09;108073;1254;72815;-65
2023/11/24 10:54:36;;;;;;;4.50;1.90;;;;;;;7.80;61.59;97733.93;107900;1258;60350;-66
2023/11/24 10:57:05;;;;;;;3.80;1.80;;;;;;;7.88;61.54;97725.85;107712;1255;60347;-65
2023/11/24 10:59:37;;;;;;;3.70;1.90;;;;;;;7.97;61.52;97725.29;108008;1254;73869;-65
2023/11/24 11:02:08;;;;;;;4.50;2.00;;;;;;;8.01;61.16;97726.62;107577;1255;71458;-67
2023/11/24 11:28:36;;;;;;;3.60;1.70;;;;;;;8.05;58.30;97720.91;107925;1256;71263;-65
2023/11/24 11:32:02;;;;;;;4.80;1.60;;;;;;;8.11;58.71;97725.11;107958;1255;62641;-65
2023/11/24 11:35:28;;;;;;;3.50;1.80;;;;;;;8.15;58.70;97717.27;108035;1256;60539;-66
2023/11/24 11:38:53;;;;;;;3.50;1.60;;;;;;;8.17;58.24;97726.74;108002;1255;72351;-66
2023/11/24 11:42:31;;;;;;;2.40;1.30;;;;;;;8.05;57.38;97740.58;108004;1256;71307;-66
2023/11/24 11:45:58;;;;;;;3.10;1.60;;;;;;;7.99;57.88;97752.13;107856;1256;71237;-65
2023/11/24 11:49:23;;;;;;;4.10;1.50;;;;;;;7.87;57.72;97750.59;108018;1256;60461;-67
2023/11/24 11:52:51;;;;;;;5.40;1.50;;;;;;;7.82;56.88;97762.48;108025;1258;60367;-65
2023/11/24 11:56:16;;;;;;;3.10;1.30;;;;;;;7.81;56.07;97762.28;108060;1255;72463;-63
2023/11/24 11:59:41;;;;;;;4.80;2.00;;;;;;;7.82;56.06;97761.85;108068;1256;71283;-68
2023/11/24 12:03:05;;;;;;;3.40;1.40;;;;;;;7.83;55.51;97761.98;108033;1256;71328;-68
2023/11/24 12:06:29;;;;;;;3.60;1.50;;;;;;;7.82;55.06;97754.28;107914;1256;60351;-66
2023/11/24 12:09:53;;;;;;;2.70;1.30;;;;;;;7.80;55.08;97749.34;108023;1255;60461;-66
2023/11/24 12:13:18;;;;;;;4.60;2.10;;;;;;;7.79;54.94;97754.84;108058;1256;75240;-66
2023/11/24 12:16:43;;;;;;;2.70;1.10;;;;;;;7.74;54.54;97766.77;108126;1254;71193;-67
2023/11/24 12:20:10;;;;;;;3.30;1.40;;;;;;;7.73;55.22;97765.80;108104;1254;71413;-66
2023/11/24 12:23:28;;;;;;;3.00;1.20;;;;;;;7.75;55.17;97768.98;108035;1256;59783;-66
2023/11/24 12:26:46;;;;;;;5.00;1.30;;;;;;;7.83;55.22;97771.80;107969;1256;60293;-66
2023/11/24 12:30:04;;;;;;;3.20;1.10;;;;;;;7.89;55.08;97781.33;108032;1256;72439;-65